Time;durP1;ratioP1;P1;durP2;ratioP2;P2;SDS_P1;SDS_P2;PMS_P1;PMS_P2;Temp;Humidity;BMP_temperature;BMP_pressure;BME280_temperature;BME280_humidity;BME280_pressure;Samples;Min_cycle;Max_cycle;Signal;HPM_P1;HPM_P2
2021/04/29 00:01:43;;;;;;;1.98;1.45;;;22.40;34.70;;;;;;5011735;28;20412;-67
2021/04/29 00:04:12;;;;;;;2.23;1.50;;;22.40;34.70;;;;;;5012849;28;20392;-66
2021/04/29 00:06:38;;;;;;;1.70;1.30;;;22.40;34.70;;;;;;5012480;28;20920;-67
2021/04/29 00:09:05;;;;;;;1.50;1.30;;;22.40;34.80;;;;;;5012289;28;20467;-66
2021/04/29 00:11:32;;;;;;;1.85;1.42;;;22.40;34.70;;;;;;5010668;28;20412;-66
2021/04/29 00:13:58;;;;;;;1.70;1.40;;;22.40;34.60;;;;;;5012174;28;20415;-67
2021/04/29 00:16:24;;;;;;;2.42;1.40;;;22.40;34.70;;;;;;5012432;28;20393;-67
2021/04/29 00:18:49;;;;;;;1.70;1.30;;;22.30;34.70;;;;;;5011065;28;20385;-67
2021/04/29 00:21:15;;;;;;;2.17;1.42;;;22.30;34.60;;;;;;5011811;28;20424;-60
2021/04/29 00:23:40;;;;;;;1.70;1.40;;;22.30;34.60;;;;;;5012207;28;20381;-67
2021/04/29 00:26:06;;;;;;;1.80;1.60;;;22.30;34.60;;;;;;5012178;28;20828;-64
2021/04/29 00:28:32;;;;;;;1.63;1.33;;;22.30;34.60;;;;;;5012288;28;20393;-66
2021/04/29 00:30:57;;;;;;;1.83;1.30;;;22.30;34.60;;;;;;5012130;28;20392;-67
2021/04/29 00:33:23;;;;;;;1.40;1.20;;;22.30;34.70;;;;;;5010585;28;20757;-67
2021/04/29 00:35:49;;;;;;;1.85;1.30;;;22.30;34.60;;;;;;5011900;28;20392;-67
2021/04/29 00:38:16;;;;;;;1.60;1.33;;;22.30;34.60;;;;;;5012103;28;20385;-67
2021/04/29 00:40:42;;;;;;;2.35;1.67;;;22.30;34.60;;;;;;5011919;28;20400;-66
2021/04/29 00:43:14;;;;;;;1.55;1.23;;;22.20;34.60;;;;;;5011973;28;20747;-67
2021/04/29 00:45:40;;;;;;;1.85;1.63;;;22.20;34.60;;;;;;5011695;28;20389;-66
2021/04/29 00:48:07;;;;;;;1.70;1.20;;;22.20;34.60;;;;;;5011879;28;20749;-67
2021/04/29 00:50:33;;;;;;;1.85;1.50;;;22.20;34.70;;;;;;5011712;28;20384;-66
2021/04/29 00:52:58;;;;;;;1.85;1.30;;;22.20;34.60;;;;;;5011855;28;20864;-67
2021/04/29 00:55:24;;;;;;;1.88;1.45;;;22.20;34.60;;;;;;5009976;28;20407;-67
2021/04/29 00:57:50;;;;;;;1.60;1.30;;;22.20;34.70;;;;;;5011747;28;20468;-67
2021/04/29 01:00:17;;;;;;;1.67;1.40;;;22.20;34.60;;;;;;5010557;28;20393;-67
2021/04/29 01:02:52;;;;;;;1.80;1.48;;;22.20;34.60;;;;;;5011729;28;20483;-67
2021/04/29 01:05:22;;;;;;;1.88;1.20;;;22.20;34.60;;;;;;5010163;28;20401;-67
2021/04/29 01:08:13;;;;;;;1.50;1.10;;;22.20;34.70;;;;;;5011574;28;20492;-66
2021/04/29 01:10:53;;;;;;;1.58;1.23;;;22.10;34.60;;;;;;5004835;28;20856;-65
2021/04/29 01:13:27;;;;;;;1.70;1.23;;;22.10;34.60;;;;;;5011816;28;20404;-67
2021/04/29 01:15:54;;;;;;;2.08;1.33;;;22.10;34.60;;;;;;5015498;28;20931;-67
2021/04/29 01:18:23;;;;;;;1.85;1.45;;;22.10;34.60;;;;;;5015732;28;20425;-68
2021/04/29 01:21:06;;;;;;;1.88;1.50;;;22.10;34.70;;;;;;5015609;28;20480;-67
2021/04/29 01:23:41;;;;;;;1.67;1.30;;;22.10;34.60;;;;;;5015126;28;20392;-67
2021/04/29 01:26:13;;;;;;;1.73;1.40;;;22.10;34.70;;;;;;5015423;28;20408;-67
2021/04/29 01:28:39;;;;;;;2.45;1.40;;;22.10;34.60;;;;;;5015457;28;20389;-66
2021/04/29 01:31:08;;;;;;;1.93;1.33;;;22.10;34.60;;;;;;5015427;28;20467;-66
2021/04/29 01:33:35;;;;;;;1.93;1.40;;;22.10;34.70;;;;;;5014903;28;20398;-67
2021/04/29 01:36:02;;;;;;;1.77;1.33;;;22.10;34.60;;;;;;5015202;28;20397;-65
2021/04/29 01:38:27;;;;;;;1.73;1.42;;;22.10;34.70;;;;;;5014046;28;20407;-67
2021/04/29 01:40:54;;;;;;;1.80;1.40;;;22.10;34.70;;;;;;5015218;28;20392;-66
2021/04/29 01:43:21;;;;;;;1.77;1.30;;;22.00;34.60;;;;;;5014988;28;20388;-66
2021/04/29 01:45:46;;;;;;;1.80;1.27;;;22.00;34.70;;;;;;5014956;28;20424;-67
2021/04/29 01:48:12;;;;;;;1.77;1.30;;;22.00;34.70;;;;;;5015063;28;20397;-67
2021/04/29 01:50:39;;;;;;;2.08;1.70;;;22.00;34.70;;;;;;5015051;28;20388;-63
2021/04/29 01:53:06;;;;;;;1.67;1.45;;;22.00;34.80;;;;;;5015036;28;20405;-67
2021/04/29 01:55:33;;;;;;;1.92;1.48;;;22.00;34.80;;;;;;5013830;28;20400;-67
2021/04/29 01:57:59;;;;;;;2.30;1.50;;;22.00;34.80;;;;;;5014583;28;20428;-67
2021/04/29 02:00:24;;;;;;;2.03;1.60;;;22.00;34.80;;;;;;5014725;28;20435;-68
2021/04/29 02:02:50;;;;;;;1.88;1.50;;;22.00;34.90;;;;;;5014793;28;20813;-67
2021/04/29 02:05:16;;;;;;;2.50;1.70;;;22.00;34.90;;;;;;5014596;28;20381;-62
2021/04/29 02:07:42;;;;;;;2.20;1.70;;;22.00;34.90;;;;;;5014467;28;20776;-67
2021/04/29 02:10:08;;;;;;;1.80;1.50;;;22.00;34.90;;;;;;5014191;28;20726;-66
2021/04/29 02:12:43;;;;;;;1.90;1.50;;;22.00;35.00;;;;;;5014647;28;20951;-68
2021/04/29 02:15:11;;;;;;;2.00;1.42;;;21.90;35.00;;;;;;5014449;28;20409;-68
2021/04/29 02:17:52;;;;;;;1.70;1.33;;;21.90;35.00;;;;;;5014352;28;20480;-66
2021/04/29 02:20:22;;;;;;;1.67;1.30;;;21.90;35.00;;;;;;5014399;28;20516;-67
2021/04/29 02:22:48;;;;;;;1.60;1.40;;;21.90;35.10;;;;;;5014469;28;20825;-67
2021/04/29 02:25:15;;;;;;;1.50;1.27;;;21.90;35.10;;;;;;5013359;28;20408;-68
2021/04/29 02:27:41;;;;;;;2.22;1.40;;;21.90;35.10;;;;;;5011925;28;20987;-63
2021/04/29 02:30:11;;;;;;;1.92;1.40;;;21.90;35.20;;;;;;5014365;28;20857;-67
2021/04/29 02:32:38;;;;;;;1.85;1.45;;;21.90;35.20;;;;;;5014322;28;20876;-67
2021/04/29 02:35:10;;;;;;;1.90;1.58;;;21.90;35.30;;;;;;5014207;28;20869;-64
2021/04/29 02:37:38;;;;;;;2.38;1.50;;;21.90;35.30;;;;;;5013880;28;20861;-67
2021/04/29 02:40:06;;;;;;;2.10;1.50;;;21.90;35.20;;;;;;5013291;28;20397;-66
2021/04/29 02:42:32;;;;;;;1.50;1.30;;;21.80;35.30;;;;;;5014113;28;20480;-68
2021/04/29 02:44:58;;;;;;;2.03;1.25;;;21.80;35.30;;;;;;5014026;28;20400;-67
2021/04/29 02:47:23;;;;;;;2.20;1.30;;;21.80;35.30;;;;;;5013498;28;20424;-67
2021/04/29 02:49:49;;;;;;;1.90;1.30;;;21.80;35.30;;;;;;5013882;28;20749;-67
2021/04/29 02:52:15;;;;;;;2.00;1.33;;;21.80;35.40;;;;;;5013909;28;20393;-67
2021/04/29 02:54:41;;;;;;;1.55;1.30;;;21.80;35.40;;;;;;5014027;28;20401;-65
2021/04/29 02:57:07;;;;;;;2.10;1.30;;;21.80;35.40;;;;;;5013928;28;20396;-67
2021/04/29 02:59:39;;;;;;;2.10;1.50;;;21.80;35.50;;;;;;5013317;28;20377;-67
2021/04/29 03:02:07;;;;;;;1.60;1.30;;;21.80;35.60;;;;;;5013752;28;20891;-67
2021/04/29 03:04:33;;;;;;;2.10;1.20;;;21.80;35.50;;;;;;5013718;28;20396;-67
2021/04/29 03:06:59;;;;;;;1.70;1.30;;;21.80;35.60;;;;;;5013544;28;20412;-67
2021/04/29 03:09:25;;;;;;;1.88;1.35;;;21.80;35.60;;;;;;5013132;28;20393;-67
2021/04/29 03:11:51;;;;;;;1.45;1.13;;;21.80;35.60;;;;;;5013487;28;20463;-66
2021/04/29 03:14:16;;;;;;;1.40;1.20;;;21.70;35.50;;;;;;5013339;28;20491;-66
2021/04/29 03:16:42;;;;;;;1.58;1.10;;;21.70;35.50;;;;;;5013499;28;20796;-66
2021/04/29 03:19:07;;;;;;;1.60;1.20;;;21.70;35.50;;;;;;5013450;28;20404;-67
2021/04/29 03:21:33;;;;;;;2.03;1.40;;;21.80;35.60;;;;;;5013021;28;20954;-67
2021/04/29 03:23:58;;;;;;;1.77;1.47;;;21.70;35.60;;;;;;5013268;28;20397;-67
2021/04/29 03:26:25;;;;;;;1.50;1.23;;;21.70;35.60;;;;;;5013190;28;20429;-67
2021/04/29 03:28:51;;;;;;;2.00;1.33;;;21.70;35.60;;;;;;5013218;28;20389;-66
2021/04/29 03:31:16;;;;;;;1.90;1.40;;;21.70;35.60;;;;;;5013110;28;20781;-67
2021/04/29 03:33:42;;;;;;;1.90;1.40;;;21.70;35.50;;;;;;5012838;28;20392;-66
2021/04/29 03:36:07;;;;;;;1.80;1.30;;;21.70;35.50;;;;;;5012196;28;20393;-67
2021/04/29 03:38:33;;;;;;;2.38;1.40;;;21.70;35.50;;;;;;5013115;28;20400;-67
2021/04/29 03:40:59;;;;;;;1.70;1.23;;;21.70;35.50;;;;;;5013008;28;20396;-67
2021/04/29 03:43:24;;;;;;;2.08;1.33;;;21.70;35.50;;;;;;5012569;28;20435;-66
2021/04/29 03:45:50;;;;;;;1.67;1.40;;;21.70;35.50;;;;;;5012685;28;20405;-65
2021/04/29 03:48:15;;;;;;;1.70;1.35;;;21.70;35.50;;;;;;5012896;28;20397;-66
2021/04/29 03:50:41;;;;;;;2.30;1.40;;;21.70;35.50;;;;;;5012899;28;20385;-66
2021/04/29 03:53:07;;;;;;;1.90;1.40;;;21.70;35.50;;;;;;5012926;28;20397;-68
2021/04/29 03:55:32;;;;;;;1.60;1.17;;;21.60;35.50;;;;;;5012308;28;20407;-67
2021/04/29 03:57:58;;;;;;;1.70;1.50;;;21.70;35.50;;;;;;5012674;28;20393;-66
2021/04/29 04:00:24;;;;;;;1.70;1.50;;;21.60;35.50;;;;;;5012814;28;20454;-67
2021/04/29 04:02:49;;;;;;;1.77;1.33;;;21.60;35.50;;;;;;5012591;28;20424;-66
2021/04/29 04:05:15;;;;;;;1.70;1.40;;;21.60;35.50;;;;;;5012656;28;20398;-66
2021/04/29 04:07:41;;;;;;;1.48;1.20;;;21.60;35.50;;;;;;5011967;28;20413;-67
2021/04/29 04:10:08;;;;;;;1.40;1.13;;;21.60;35.50;;;;;;5012524;28;20943;-65
2021/04/29 04:12:34;;;;;;;2.15;1.40;;;21.70;35.50;;;;;;5011397;28;20385;-68
2021/04/29 04:15:00;;;;;;;2.70;1.50;;;21.80;35.90;;;;;;5012243;28;20667;-66
2021/04/29 04:17:25;;;;;;;1.93;1.00;;;21.90;35.80;;;;;;5012024;28;20842;-66
2021/04/29 04:19:51;;;;;;;4.10;1.20;;;22.00;35.70;;;;;;5012310;28;20393;-66
2021/04/29 04:22:17;;;;;;;2.60;1.37;;;22.00;35.80;;;;;;5012339;28;20397;-66
2021/04/29 04:24:43;;;;;;;2.50;1.17;;;22.00;35.70;;;;;;5012256;28;20404;-66
2021/04/29 04:27:08;;;;;;;2.83;1.30;;;22.10;35.80;;;;;;5012211;28;20746;-67
2021/04/29 04:29:35;;;;;;;2.13;1.10;;;22.10;35.50;;;;;;5011716;28;20415;-67
2021/04/29 04:32:00;;;;;;;1.55;1.15;;;22.10;36.00;;;;;;5012875;28;20401;-63
2021/04/29 04:34:26;;;;;;;8.50;1.70;;;22.10;35.60;;;;;;5012128;28;20392;-66
2021/04/29 04:36:52;;;;;;;2.63;1.30;;;22.10;36.00;;;;;;5012049;28;20388;-62
2021/04/29 04:39:18;;;;;;;2.30;1.40;;;22.20;36.00;;;;;;5012245;28;20407;-67
2021/04/29 04:41:44;;;;;;;1.95;1.20;;;22.20;36.10;;;;;;5011506;28;20889;-61
2021/04/29 04:44:09;;;;;;;2.10;1.30;;;22.20;36.20;;;;;;5011934;28;20484;-62
2021/04/29 04:46:35;;;;;;;2.47;1.30;;;22.20;36.20;;;;;;5011847;28;20455;-66
2021/04/29 04:49:01;;;;;;;4.43;1.33;;;22.30;35.80;;;;;;5010751;28;20470;-66
2021/04/29 04:51:26;;;;;;;4.10;1.20;;;22.30;36.70;;;;;;5011614;28;20416;-66
2021/04/29 04:53:52;;;;;;;3.97;1.45;;;22.30;37.50;;;;;;5020038;28;20379;-65
2021/04/29 04:56:18;;;;;;;3.50;1.50;;;22.30;36.70;;;;;;5022367;28;20407;-65
2021/04/29 04:58:44;;;;;;;2.47;1.40;;;22.30;36.50;;;;;;5021006;28;20408;-66
2021/04/29 05:01:10;;;;;;;4.20;1.50;;;22.30;37.10;;;;;;5016731;28;20883;-66
2021/04/29 05:03:35;;;;;;;4.73;1.50;;;22.30;36.80;;;;;;5030981;28;20422;-67
2021/04/29 05:06:01;;;;;;;2.80;1.30;;;22.20;37.10;;;;;;5031193;28;20446;-67
2021/04/29 05:08:27;;;;;;;3.25;1.30;;;22.30;36.90;;;;;;5031471;28;20399;-67
2021/04/29 05:10:53;;;;;;;3.97;1.70;;;22.30;36.70;;;;;;5031316;28;20894;-67
2021/04/29 05:13:18;;;;;;;6.28;1.45;;;22.30;36.60;;;;;;5031387;28;20398;-67
2021/04/29 05:15:44;;;;;;;3.77;1.70;;;22.40;36.50;;;;;;5030612;28;20535;-66
2021/04/29 05:18:10;;;;;;;4.25;1.40;;;22.30;36.40;;;;;;5031462;28;20399;-66
2021/04/29 05:20:35;;;;;;;3.50;1.57;;;22.30;36.40;;;;;;5031356;28;20379;-67
2021/04/29 05:23:01;;;;;;;2.75;1.60;;;22.40;36.50;;;;;;5031377;28;20577;-66
2021/04/29 05:25:27;;;;;;;5.10;1.30;;;22.40;37.00;;;;;;5030071;28;20786;-67
2021/04/29 05:27:58;;;;;;;5.93;1.60;;;22.50;36.60;;;;;;5031057;28;20411;-66
2021/04/29 05:30:24;;;;;;;2.88;1.50;;;22.40;36.70;;;;;;5031256;28;20794;-67
2021/04/29 05:32:49;;;;;;;5.95;1.90;;;22.40;36.80;;;;;;5031370;28;20445;-67
2021/04/29 05:35:16;;;;;;;4.40;2.37;;;22.40;36.50;;;;;;5031160;28;21027;-66
2021/04/29 05:37:41;;;;;;;4.30;2.63;;;22.40;36.50;;;;;;5029332;28;20731;-66
2021/04/29 05:40:08;;;;;;;7.25;2.90;;;22.40;36.90;;;;;;5031112;28;20398;-66
2021/04/29 05:42:34;;;;;;;5.40;2.80;;;22.40;37.00;;;;;;5031164;28;20383;-66
2021/04/29 05:45:00;;;;;;;6.32;2.47;;;22.40;36.90;;;;;;5031025;28;20391;-66
2021/04/29 05:47:26;;;;;;;5.13;2.60;;;22.40;36.50;;;;;;5031270;28;20419;-66
2021/04/29 05:49:52;;;;;;;5.97;2.50;;;22.40;36.50;;;;;;5030565;28;20724;-67
2021/04/29 05:52:17;;;;;;;3.70;2.10;;;22.50;36.10;;;;;;5031041;28;20395;-66
2021/04/29 05:54:43;;;;;;;4.05;2.40;;;22.50;36.10;;;;;;5030992;28;20441;-66
2021/04/29 05:57:09;;;;;;;4.97;2.30;;;22.60;36.00;;;;;;5031101;28;20449;-67
2021/04/29 05:59:34;;;;;;;3.92;2.17;;;22.60;36.00;;;;;;5031464;28;20386;-66
2021/04/29 06:02:00;;;;;;;3.53;2.00;;;22.60;36.20;;;;;;5034632;28;20423;-66
2021/04/29 06:04:26;;;;;;;3.65;2.13;;;22.60;36.10;;;;;;5033286;28;20390;-62
2021/04/29 06:06:51;;;;;;;4.20;2.10;;;22.70;36.20;;;;;;5012681;28;20416;-60
2021/04/29 06:09:18;;;;;;;5.93;2.40;;;22.70;36.30;;;;;;5013619;28;20392;-63
2021/04/29 06:11:44;;;;;;;3.35;1.90;;;22.60;36.40;;;;;;5012813;28;20397;-66
2021/04/29 06:14:13;;;;;;;4.30;2.00;;;22.60;36.00;;;;;;5013715;28;20992;-61
2021/04/29 06:16:40;;;;;;;5.20;2.00;;;22.70;35.60;;;;;;5014477;28;20804;-60
2021/04/29 06:19:06;;;;;;;3.25;2.10;;;22.70;35.80;;;;;;5014552;28;20397;-61
2021/04/29 06:21:32;;;;;;;5.28;1.95;;;22.70;35.90;;;;;;5014338;28;20393;-60
2021/04/29 06:23:58;;;;;;;4.47;2.08;;;22.70;35.70;;;;;;5013142;28;20404;-60
2021/04/29 06:26:24;;;;;;;4.82;1.92;;;22.70;35.90;;;;;;5014383;28;20424;-60
2021/04/29 06:28:50;;;;;;;4.53;2.00;;;22.70;35.60;;;;;;5016435;28;20401;-60
2021/04/29 06:31:15;;;;;;;4.47;2.00;;;22.80;35.50;;;;;;5031281;28;20395;-60
2021/04/29 06:33:42;;;;;;;4.33;1.83;;;22.70;35.40;;;;;;5014703;28;20389;-62
2021/04/29 06:36:07;;;;;;;5.32;2.00;;;22.70;35.20;;;;;;5011453;28;20401;-65
2021/04/29 06:38:35;;;;;;;3.17;2.00;;;22.80;35.50;;;;;;5012309;28;20389;-65
2021/04/29 06:41:01;;;;;;;5.45;2.00;;;22.80;35.50;;;;;;5012697;28;20396;-65
2021/04/29 06:43:26;;;;;;;3.45;1.95;;;22.80;35.50;;;;;;5014067;28;20385;-65
2021/04/29 06:45:53;;;;;;;3.70;1.70;;;22.80;35.60;;;;;;5013332;28;20523;-62
2021/04/29 06:48:20;;;;;;;4.10;1.90;;;22.80;35.30;;;;;;5014105;28;20409;-62
2021/04/29 06:50:48;;;;;;;4.53;1.90;;;22.90;35.30;;;;;;5014039;28;20407;-64
2021/04/29 06:53:13;;;;;;;4.30;1.95;;;22.80;35.30;;;;;;5013989;28;20389;-62
2021/04/29 06:55:39;;;;;;;3.17;1.70;;;22.90;35.90;;;;;;5013342;28;20440;-66
2021/04/29 06:58:05;;;;;;;3.80;1.80;;;22.90;35.30;;;;;;5013761;28;20385;-66
2021/04/29 07:00:32;;;;;;;3.42;1.73;;;22.80;35.30;;;;;;5014010;28;20395;-66
2021/04/29 07:02:59;;;;;;;4.07;1.85;;;22.80;35.50;;;;;;5013512;28;20397;-66
2021/04/29 07:05:25;;;;;;;2.90;1.75;;;22.80;35.50;;;;;;5013378;28;20395;-65
2021/04/29 07:07:55;;;;;;;3.67;1.70;;;22.80;35.40;;;;;;5012825;28;20424;-60
2021/04/29 07:10:22;;;;;;;2.35;1.70;;;22.80;35.50;;;;;;5013498;28;20464;-61
2021/04/29 07:12:48;;;;;;;4.05;1.80;;;22.80;35.70;;;;;;5021652;28;20948;-63
2021/04/29 07:15:14;;;;;;;3.60;1.80;;;22.90;35.70;;;;;;5031273;28;20443;-61
2021/04/29 07:17:41;;;;;;;2.72;1.75;;;22.90;35.70;;;;;;5031219;28;20410;-64
2021/04/29 07:20:08;;;;;;;3.92;1.73;;;23.00;35.60;;;;;;5031919;28;20391;-63
2021/04/29 07:22:34;;;;;;;3.20;1.60;;;23.00;35.80;;;;;;5031535;28;20410;-63
2021/04/29 07:24:59;;;;;;;2.60;1.50;;;23.10;35.90;;;;;;5032067;28;20391;-65
2021/04/29 07:27:25;;;;;;;5.45;1.55;;;23.00;35.90;;;;;;5031061;28;20504;-59
2021/04/29 07:29:50;;;;;;;3.67;1.50;;;23.00;35.90;;;;;;5018648;28;20403;-66
2021/04/29 07:32:17;;;;;;;2.42;1.70;;;23.00;35.70;;;;;;5016147;28;20408;-66
2021/04/29 07:34:43;;;;;;;2.90;1.70;;;23.10;35.70;;;;;;5013048;28;20385;-66
2021/04/29 07:37:09;;;;;;;2.63;1.48;;;23.10;35.60;;;;;;5013115;28;20544;-66
2021/04/29 07:39:35;;;;;;;2.57;1.50;;;23.10;35.50;;;;;;5013055;28;20761;-67
2021/04/29 07:42:01;;;;;;;3.22;1.48;;;23.10;35.50;;;;;;5011410;28;20414;-66
2021/04/29 07:44:27;;;;;;;3.10;1.50;;;23.10;35.40;;;;;;5012800;28;20389;-60
2021/04/29 07:46:53;;;;;;;3.28;1.50;;;23.20;35.40;;;;;;5012841;28;20884;-59
2021/04/29 07:49:18;;;;;;;2.90;1.40;;;23.10;35.40;;;;;;5012848;28;20755;-61
2021/04/29 07:51:44;;;;;;;2.80;1.40;;;23.10;35.40;;;;;;5012183;28;20897;-66
2021/04/29 07:54:14;;;;;;;2.40;1.20;;;23.10;35.40;;;;;;5011336;28;20388;-63
2021/04/29 07:56:41;;;;;;;2.67;1.30;;;23.10;35.40;;;;;;5012616;28;20428;-61
2021/04/29 07:59:07;;;;;;;2.70;1.40;;;23.10;35.70;;;;;;5012594;28;20393;-61
2021/04/29 08:01:33;;;;;;;3.40;1.40;;;23.20;35.70;;;;;;5012574;28;20395;-60
2021/04/29 08:04:01;;;;;;;2.90;1.27;;;23.20;35.80;;;;;;5012121;28;20388;-66
2021/04/29 08:06:30;;;;;;;3.20;1.30;;;23.20;35.70;;;;;;5012532;28;20404;-65
2021/04/29 08:08:57;;;;;;;4.00;1.63;;;23.20;35.60;;;;;;5008844;28;20815;-65
2021/04/29 08:11:24;;;;;;;2.75;1.20;;;23.20;35.50;;;;;;5016943;28;20417;-66
2021/04/29 08:13:50;;;;;;;2.47;1.10;;;23.20;35.60;;;;;;5010366;28;20877;-66
2021/04/29 08:16:15;;;;;;;4.05;1.35;;;23.20;35.60;;;;;;5012447;28;20405;-65
2021/04/29 08:18:41;;;;;;;1.80;1.07;;;23.30;35.60;;;;;;5012315;28;20385;-66
2021/04/29 08:21:08;;;;;;;2.10;1.20;;;23.30;35.50;;;;;;5012141;28;20409;-66
2021/04/29 08:23:34;;;;;;;1.60;1.10;;;23.30;35.40;;;;;;5012119;28;20375;-66
2021/04/29 08:26:01;;;;;;;2.60;1.10;;;23.30;35.40;;;;;;5011697;28;20484;-66
2021/04/29 08:28:26;;;;;;;2.08;1.08;;;23.40;35.50;;;;;;5012199;28;21015;-66
2021/04/29 08:30:52;;;;;;;2.00;1.08;;;23.30;35.50;;;;;;5012009;28;20472;-66
2021/04/29 08:33:18;;;;;;;2.03;1.13;;;23.40;35.50;;;;;;5012121;28;20388;-66
2021/04/29 08:35:44;;;;;;;1.70;1.10;;;23.50;35.40;;;;;;5011616;28;20388;-66
2021/04/29 08:38:10;;;;;;;2.30;1.05;;;23.40;35.30;;;;;;5012001;28;20443;-66
2021/04/29 08:40:35;;;;;;;2.10;1.00;;;23.50;35.40;;;;;;5011933;28;20782;-66
2021/04/29 08:43:01;;;;;;;1.35;0.80;;;23.50;35.40;;;;;;5011849;28;20472;-65
2021/04/29 08:45:27;;;;;;;2.17;0.97;;;23.50;35.30;;;;;;5011940;28;20400;-66
2021/04/29 08:47:54;;;;;;;1.80;0.90;;;23.50;35.30;;;;;;5011348;28;20435;-66
2021/04/29 08:50:22;;;;;;;1.60;0.90;;;23.50;35.30;;;;;;5011874;28;20396;-66
2021/04/29 08:52:49;;;;;;;2.88;0.95;;;23.50;35.20;;;;;;5011803;28;20431;-66
2021/04/29 08:55:17;;;;;;;3.25;1.10;;;23.40;35.40;;;;;;5011758;28;20400;-67
2021/04/29 08:57:44;;;;;;;3.78;1.00;;;23.40;35.50;;;;;;5011323;28;20919;-63
2021/04/29 09:00:10;;;;;;;2.38;1.00;;;23.50;35.60;;;;;;5011811;28;20393;-67
2021/04/29 09:02:37;;;;;;;2.53;0.90;;;23.50;35.60;;;;;;5011353;28;20444;-66
2021/04/29 09:05:21;;;;;;;2.00;0.90;;;23.50;35.50;;;;;;5011679;28;20428;-67
2021/04/29 09:07:58;;;;;;;1.58;0.88;;;23.50;35.40;;;;;;5010493;28;20778;-66
2021/04/29 09:10:44;;;;;;;1.70;0.90;;;23.50;35.40;;;;;;5012852;28;20391;-66
2021/04/29 09:13:21;;;;;;;2.35;1.00;;;23.50;35.40;;;;;;5015616;28;20459;-67
2021/04/29 09:15:48;;;;;;;1.65;0.80;;;23.50;35.40;;;;;;5010843;28;20417;-66
2021/04/29 09:18:16;;;;;;;2.17;0.88;;;23.60;35.40;;;;;;5011640;28;20416;-67
2021/04/29 09:20:52;;;;;;;1.42;0.80;;;23.60;35.40;;;;;;5011190;28;20946;-66
2021/04/29 09:23:21;;;;;;;1.40;0.80;;;23.60;35.40;;;;;;5011552;28;20425;-66
2021/04/29 09:25:57;;;;;;;1.50;0.90;;;23.60;35.50;;;;;;5011345;28;20418;-60
2021/04/29 09:28:42;;;;;;;1.13;0.70;;;23.60;35.50;;;;;;5010201;28;20908;-61
2021/04/29 09:31:14;;;;;;;1.98;0.90;;;23.60;35.50;;;;;;5011817;28;20381;-64
2021/04/29 09:33:42;;;;;;;1.52;0.60;;;23.60;35.60;;;;;;5011460;28;20392;-62
2021/04/29 09:36:20;;;;;;;2.10;0.70;;;23.60;35.40;;;;;;5014801;28;20400;-61
2021/04/29 09:38:53;;;;;;;2.10;0.75;;;23.60;35.90;;;;;;5015286;28;20427;-61
2021/04/29 09:41:23;;;;;;;2.47;0.80;;;23.60;36.20;;;;;;5014524;28;20396;-62
2021/04/29 09:43:57;;;;;;;2.45;0.80;;;23.60;35.70;;;;;;5014524;28;20883;-67
2021/04/29 09:46:24;;;;;;;2.65;0.68;;;23.60;36.10;;;;;;5014980;28;20428;-60
2021/04/29 09:48:50;;;;;;;2.15;0.82;;;23.60;36.70;;;;;;5014915;28;20385;-60
2021/04/29 09:51:19;;;;;;;2.10;0.73;;;23.60;36.50;;;;;;5014802;28;20393;-60
2021/04/29 09:53:49;;;;;;;7.82;1.20;;;23.60;36.00;;;;;;5014673;28;20392;-61
2021/04/29 09:56:15;;;;;;;3.33;0.85;;;23.50;35.90;;;;;;5014989;28;20496;-66
2021/04/29 09:58:55;;;;;;;2.10;0.63;;;23.50;35.80;;;;;;5014752;28;20401;-61
2021/04/29 10:01:20;;;;;;;2.33;0.70;;;23.60;35.90;;;;;;5014908;28;20760;-61
2021/04/29 10:03:46;;;;;;;2.17;0.80;;;23.50;35.60;;;;;;5014387;28;20389;-63
2021/04/29 10:06:14;;;;;;;1.57;0.80;;;23.50;36.00;;;;;;5014848;28;20412;-60
2021/04/29 10:08:40;;;;;;;2.47;0.70;;;23.50;35.60;;;;;;5014821;28;20428;-63
2021/04/29 10:11:07;;;;;;;2.88;0.80;;;23.50;36.20;;;;;;5014274;28;20820;-60
2021/04/29 10:13:37;;;;;;;2.55;0.65;;;23.50;36.60;;;;;;5013839;28;20428;-59
2021/04/29 10:16:03;;;;;;;3.00;1.00;;;23.50;35.90;;;;;;5014253;28;20884;-62
2021/04/29 10:18:29;;;;;;;3.07;1.00;;;23.60;37.10;;;;;;5014627;28;20396;-59
2021/04/29 10:20:59;;;;;;;2.88;0.90;;;23.60;36.50;;;;;;5014401;28;20447;-60
2021/04/29 10:23:26;;;;;;;3.75;0.80;;;23.60;37.30;;;;;;5014538;28;20531;-61
2021/04/29 10:25:59;;;;;;;1.60;0.80;;;23.60;37.00;;;;;;5013911;28;20480;-61
2021/04/29 10:28:41;;;;;;;2.38;0.85;;;23.60;37.10;;;;;;5014588;28;20495;-59
2021/04/29 10:31:21;;;;;;;3.20;0.90;;;23.60;37.50;;;;;;5014341;28;20943;-61
2021/04/29 10:33:55;;;;;;;3.08;0.80;;;23.60;39.90;;;;;;5014000;28;20393;-61
2021/04/29 10:36:22;;;;;;;2.30;0.90;;;23.70;40.90;;;;;;5014353;28;20480;-59
2021/04/29 10:38:49;;;;;;;2.00;0.90;;;23.70;41.30;;;;;;5014264;28;20476;-60
2021/04/29 10:41:23;;;;;;;2.75;0.80;;;23.70;41.30;;;;;;5014215;28;20385;-61
2021/04/29 10:43:50;;;;;;;3.30;0.82;;;23.70;41.10;;;;;;5013893;28;20480;-60
2021/04/29 10:46:31;;;;;;;3.53;0.80;;;23.70;40.90;;;;;;5015373;28;20915;-60
2021/04/29 10:48:58;;;;;;;3.70;0.80;;;23.70;40.00;;;;;;5023660;28;20405;-60
2021/04/29 10:51:40;;;;;;;2.42;0.90;;;23.70;39.90;;;;;;5022283;28;20428;-62
2021/04/29 10:54:08;;;;;;;2.90;0.70;;;23.70;39.20;;;;;;5018764;28;20393;-61
2021/04/29 10:56:34;;;;;;;2.63;0.70;;;23.70;40.10;;;;;;5013857;28;20421;-60
2021/04/29 10:59:13;;;;;;;2.10;0.70;;;23.60;39.60;;;;;;5013867;28;20415;-65
2021/04/29 11:01:45;;;;;;;3.13;0.70;;;23.60;40.10;;;;;;5012432;28;20447;-65
2021/04/29 11:04:20;;;;;;;1.77;0.87;;;23.60;40.40;;;;;;5013414;28;20643;-64
2021/04/29 11:06:46;;;;;;;1.88;0.80;;;23.60;39.30;;;;;;5013567;28;20416;-62
2021/04/29 11:09:25;;;;;;;1.77;0.80;;;23.60;39.70;;;;;;5013989;28;20493;-65
2021/04/29 11:12:01;;;;;;;2.10;0.73;;;23.60;39.40;;;;;;5013497;28;20412;-62
2021/04/29 11:14:46;;;;;;;1.42;0.70;;;23.60;39.50;;;;;;5013373;28;20482;-63
2021/04/29 11:17:22;;;;;;;1.58;0.75;;;23.50;39.20;;;;;;5012612;28;20424;-66
2021/04/29 11:19:58;;;;;;;1.83;0.65;;;23.60;38.40;;;;;;5012217;28;20385;-59
2021/04/29 11:22:32;;;;;;;2.47;0.77;;;23.60;38.10;;;;;;5012076;28;20428;-59
2021/04/29 11:24:58;;;;;;;2.90;0.70;;;23.60;38.60;;;;;;5013018;28;20761;-61
2021/04/29 11:27:34;;;;;;;1.27;0.50;;;23.50;38.90;;;;;;5010998;28;20491;-60
2021/04/29 11:30:13;;;;;;;1.60;0.50;;;23.60;38.70;;;;;;5016175;28;20393;-61
2021/04/29 11:32:40;;;;;;;1.48;0.70;;;23.50;38.60;;;;;;5013243;28;20385;-59
2021/04/29 11:35:27;;;;;;;1.40;0.52;;;23.50;38.30;;;;;;5012934;28;20393;-60
2021/04/29 11:37:54;;;;;;;1.00;0.50;;;23.60;38.90;;;;;;5010609;28;20757;-59
2021/04/29 11:40:21;;;;;;;1.88;0.60;;;23.60;38.10;;;;;;5012904;28;20904;-60
2021/04/29 11:42:52;;;;;;;1.42;0.50;;;23.60;38.50;;;;;;5012871;28;20424;-60
2021/04/29 11:45:20;;;;;;;1.90;0.60;;;23.60;38.10;;;;;;5012844;28;20737;-60
2021/04/29 11:48:13;;;;;;;1.23;0.45;;;23.60;37.80;;;;;;5012725;28;20495;-63
2021/04/29 11:51:00;;;;;;;2.65;0.70;;;23.60;38.20;;;;;;5011039;28;20419;-66
2021/04/29 11:53:30;;;;;;;1.27;0.50;;;23.60;37.90;;;;;;5013172;28;20389;-66
2021/04/29 11:55:58;;;;;;;2.38;0.50;;;23.60;37.70;;;;;;5012137;28;20400;-62
2021/04/29 11:58:24;;;;;;;1.60;0.55;;;23.60;37.30;;;;;;5011986;28;20478;-66
2021/04/29 12:00:52;;;;;;;1.10;0.53;;;23.60;36.90;;;;;;5012762;28;20420;-65
2021/04/29 12:03:19;;;;;;;1.15;0.50;;;23.60;36.90;;;;;;5012769;28;20415;-60
2021/04/29 12:05:49;;;;;;;0.90;0.55;;;23.60;36.80;;;;;;5012501;28;20417;-59
2021/04/29 12:08:21;;;;;;;1.48;0.43;;;23.60;36.90;;;;;;5011846;28;20424;-60
2021/04/29 12:10:58;;;;;;;1.77;0.60;;;23.60;36.90;;;;;;5011042;28;20757;-60
2021/04/29 12:13:35;;;;;;;1.08;0.60;;;23.60;36.60;;;;;;5021113;28;20784;-60
2021/04/29 12:16:04;;;;;;;0.65;0.40;;;23.60;36.60;;;;;;5020146;28;20970;-60
2021/04/29 12:18:30;;;;;;;0.82;0.50;;;23.60;36.30;;;;;;5023202;28;20407;-61
2021/04/29 12:20:57;;;;;;;1.30;0.50;;;23.60;36.40;;;;;;5023360;28;20954;-60
2021/04/29 12:23:23;;;;;;;1.33;0.55;;;23.50;37.00;;;;;;5032208;28;20427;-60
2021/04/29 12:26:14;;;;;;;1.03;0.50;;;23.50;37.00;;;;;;5032121;28;20407;-60
2021/04/29 12:28:42;;;;;;;1.10;0.60;;;23.50;36.80;;;;;;5027974;28;20443;-62
2021/04/29 12:31:17;;;;;;;0.95;0.50;;;23.50;37.00;;;;;;5032154;28;20394;-59
2021/04/29 12:34:00;;;;;;;0.80;0.50;;;23.50;36.90;;;;;;5031753;28;20431;-60
2021/04/29 12:36:26;;;;;;;1.15;0.60;;;23.50;36.80;;;;;;5031708;28;20391;-60
2021/04/29 12:38:52;;;;;;;1.00;0.50;;;23.50;36.80;;;;;;5031644;28;20406;-60
2021/04/29 12:41:18;;;;;;;1.02;0.50;;;23.50;36.70;;;;;;5031699;28;20395;-60
2021/04/29 12:43:59;;;;;;;0.90;0.40;;;23.50;36.50;;;;;;5031154;28;20384;-60
2021/04/29 12:46:35;;;;;;;0.88;0.40;;;23.50;36.40;;;;;;5030348;28;20418;-60
2021/04/29 12:49:02;;;;;;;1.00;0.50;;;23.50;36.60;;;;;;5030333;28;20906;-60
2021/04/29 12:51:28;;;;;;;1.10;0.47;;;23.50;35.90;;;;;;5031581;28;20497;-59
2021/04/29 12:54:02;;;;;;;1.40;0.40;;;23.50;35.80;;;;;;5031434;28;20485;-59